sensor_id;sensor_type;location;lat;lon;timestamp;P1;durP1;ratioP1;P2;durP2;ratioP2
29814;SDS011;16708;50.426;7.664;2024-01-15T00:08:24;28.50;;;9.10;;
29814;SDS011;16708;50.426;7.664;2024-01-15T00:23:01;36.00;;;10.10;;
29814;SDS011;16708;50.426;7.664;2024-01-15T00:37:37;33.70;;;9.60;;
29814;SDS011;16708;50.426;7.664;2024-01-15T00:52:12;36.40;;;10.30;;
29814;SDS011;16708;50.426;7.664;2024-01-15T01:06:49;34.00;;;9.60;;
29814;SDS011;16708;50.426;7.664;2024-01-15T01:21:24;34.60;;;10.10;;
29814;SDS011;16708;50.426;7.664;2024-01-15T01:36:00;39.80;;;9.90;;
29814;SDS011;16708;50.426;7.664;2024-01-15T01:50:35;40.50;;;10.80;;
29814;SDS011;16708;50.426;7.664;2024-01-15T02:05:12;34.80;;;10.10;;
29814;SDS011;16708;50.426;7.664;2024-01-15T02:34:26;36.30;;;9.90;;
29814;SDS011;16708;50.426;7.664;2024-01-15T02:49:00;35.50;;;9.90;;
29814;SDS011;16708;50.426;7.664;2024-01-15T03:18:14;38.30;;;11.10;;
29814;SDS011;16708;50.426;7.664;2024-01-15T03:32:51;37.40;;;10.50;;
29814;SDS011;16708;50.426;7.664;2024-01-15T03:47:29;38.20;;;10.50;;
29814;SDS011;16708;50.426;7.664;2024-01-15T04:02:05;40.50;;;10.90;;
29814;SDS011;16708;50.426;7.664;2024-01-15T04:31:15;38.90;;;10.30;;
29814;SDS011;16708;50.426;7.664;2024-01-15T04:45:50;43.00;;;11.60;;
29814;SDS011;16708;50.426;7.664;2024-01-15T05:00:27;48.70;;;12.40;;
29814;SDS011;16708;50.426;7.664;2024-01-15T05:15:04;44.90;;;12.90;;
29814;SDS011;16708;50.426;7.664;2024-01-15T05:29:41;47.90;;;13.00;;
29814;SDS011;16708;50.426;7.664;2024-01-15T05:44:17;49.90;;;13.30;;
29814;SDS011;16708;50.426;7.664;2024-01-15T05:58:53;66.20;;;15.90;;
29814;SDS011;16708;50.426;7.664;2024-01-15T06:13:32;55.60;;;13.70;;
29814;SDS011;16708;50.426;7.664;2024-01-15T06:28:02;54.80;;;13.80;;
29814;SDS011;16708;50.426;7.664;2024-01-15T06:42:38;60.30;;;14.90;;
29814;SDS011;16708;50.426;7.664;2024-01-15T06:57:12;57.90;;;15.30;;
29814;SDS011;16708;50.426;7.664;2024-01-15T07:11:50;53.10;;;13.90;;
29814;SDS011;16708;50.426;7.664;2024-01-15T07:26:23;60.00;;;15.70;;
29814;SDS011;16708;50.426;7.664;2024-01-15T07:41:00;53.20;;;14.30;;
29814;SDS011;16708;50.426;7.664;2024-01-15T07:55:34;52.80;;;14.60;;
29814;SDS011;16708;50.426;7.664;2024-01-15T08:10:11;52.30;;;14.60;;
29814;SDS011;16708;50.426;7.664;2024-01-15T08:24:47;43.20;;;13.40;;
29814;SDS011;16708;50.426;7.664;2024-01-15T08:39:22;44.50;;;13.50;;
29814;SDS011;16708;50.426;7.664;2024-01-15T08:54:01;37.70;;;12.10;;
29814;SDS011;16708;50.426;7.664;2024-01-15T09:08:38;39.90;;;11.80;;
29814;SDS011;16708;50.426;7.664;2024-01-15T09:23:15;34.50;;;11.70;;
29814;SDS011;16708;50.426;7.664;2024-01-15T10:07:08;23.40;;;9.30;;
29814;SDS011;16708;50.426;7.664;2024-01-15T10:21:44;25.80;;;9.10;;
29814;SDS011;16708;50.426;7.664;2024-01-15T10:36:20;23.30;;;8.90;;
29814;SDS011;16708;50.426;7.664;2024-01-15T10:50:54;25.10;;;9.20;;
29814;SDS011;16708;50.426;7.664;2024-01-15T11:20:08;28.30;;;10.00;;
29814;SDS011;16708;50.426;7.664;2024-01-15T11:34:45;24.70;;;9.30;;
29814;SDS011;16708;50.426;7.664;2024-01-15T11:49:20;25.50;;;9.80;;
29814;SDS011;16708;50.426;7.664;2024-01-15T12:03:57;23.80;;;9.60;;
29814;SDS011;16708;50.426;7.664;2024-01-15T12:18:34;22.40;;;8.90;;
29814;SDS011;16708;50.426;7.664;2024-01-15T12:33:09;20.20;;;8.20;;
29814;SDS011;16708;50.426;7.664;2024-01-15T12:47:47;17.50;;;7.40;;
29814;SDS011;16708;50.426;7.664;2024-01-15T13:02:23;16.80;;;7.20;;
29814;SDS011;16708;50.426;7.664;2024-01-15T13:31:34;16.30;;;5.60;;
29814;SDS011;16708;50.426;7.664;2024-01-15T13:46:08;14.20;;;4.70;;
29814;SDS011;16708;50.426;7.664;2024-01-15T14:00:46;13.10;;;4.10;;
29814;SDS011;16708;50.426;7.664;2024-01-15T14:15:15;55.10;;;19.70;;
29814;SDS011;16708;50.426;7.664;2024-01-15T14:29:50;10.20;;;4.00;;
29814;SDS011;16708;50.426;7.664;2024-01-15T14:44:26;8.10;;;3.00;;
29814;SDS011;16708;50.426;7.664;2024-01-15T15:13:39;18.80;;;7.50;;
29814;SDS011;16708;50.426;7.664;2024-01-15T15:28:12;9.70;;;3.40;;
29814;SDS011;16708;50.426;7.664;2024-01-15T15:42:50;15.80;;;3.80;;
29814;SDS011;16708;50.426;7.664;2024-01-15T15:57:26;7.50;;;4.00;;
29814;SDS011;16708;50.426;7.664;2024-01-15T16:12:04;8.40;;;3.10;;
29814;SDS011;16708;50.426;7.664;2024-01-15T16:26:40;11.00;;;5.60;;
29814;SDS011;16708;50.426;7.664;2024-01-15T16:41:17;11.90;;;6.30;;
29814;SDS011;16708;50.426;7.664;2024-01-15T16:55:53;12.60;;;6.20;;
29814;SDS011;16708;50.426;7.664;2024-01-15T17:10:29;14.70;;;6.50;;
29814;SDS011;16708;50.426;7.664;2024-01-15T17:25:06;12.20;;;6.00;;
29814;SDS011;16708;50.426;7.664;2024-01-15T17:39:43;10.80;;;5.70;;
29814;SDS011;16708;50.426;7.664;2024-01-15T17:54:19;13.00;;;6.00;;
29814;SDS011;16708;50.426;7.664;2024-01-15T18:08:56;11.90;;;5.60;;
29814;SDS011;16708;50.426;7.664;2024-01-15T18:52:48;10.40;;;4.80;;
29814;SDS011;16708;50.426;7.664;2024-01-15T19:07:21;11.50;;;3.40;;
29814;SDS011;16708;50.426;7.664;2024-01-15T19:21:58;9.90;;;2.90;;
29814;SDS011;16708;50.426;7.664;2024-01-15T19:36:36;13.70;;;3.20;;
29814;SDS011;16708;50.426;7.664;2024-01-15T19:51:09;7.60;;;2.20;;
29814;SDS011;16708;50.426;7.664;2024-01-15T20:05:48;10.00;;;2.40;;
29814;SDS011;16708;50.426;7.664;2024-01-15T20:20:25;11.90;;;3.30;;
29814;SDS011;16708;50.426;7.664;2024-01-15T20:35:02;9.30;;;2.40;;
29814;SDS011;16708;50.426;7.664;2024-01-15T20:49:38;9.90;;;2.10;;
29814;SDS011;16708;50.426;7.664;2024-01-15T21:04:12;14.40;;;2.00;;
29814;SDS011;16708;50.426;7.664;2024-01-15T21:18:50;14.40;;;2.20;;
29814;SDS011;16708;50.426;7.664;2024-01-15T21:33:28;11.50;;;2.20;;
29814;SDS011;16708;50.426;7.664;2024-01-15T21:48:05;8.90;;;2.40;;
29814;SDS011;16708;50.426;7.664;2024-01-15T22:02:35;10.10;;;2.10;;
29814;SDS011;16708;50.426;7.664;2024-01-15T22:17:12;9.60;;;2.20;;
29814;SDS011;16708;50.426;7.664;2024-01-15T22:31:48;6.30;;;2.10;;
29814;SDS011;16708;50.426;7.664;2024-01-15T22:46:23;7.30;;;2.10;;
29814;SDS011;16708;50.426;7.664;2024-01-15T23:00:54;9.70;;;2.30;;
29814;SDS011;16708;50.426;7.664;2024-01-15T23:15:31;11.00;;;2.30;;
29814;SDS011;16708;50.426;7.664;2024-01-15T23:30:07;11.90;;;2.40;;
29814;SDS011;16708;50.426;7.664;2024-01-15T23:44:43;7.40;;;2.60;;
29814;SDS011;16708;50.426;7.664;2024-01-15T23:59:19;9.10;;;3.40;;
